»·PEaware :: BOE561 KSMF-KSLC

BOE561 :: KSMF-KSLC

FLIGHT INFORMATION

Flight Status: Arrived
Operator:
Boeing Commercial Airplane Group
More flights by this operator :: More flights under this callsign
Pilot: Ben F. (2808)
Aircraft: BOEING 737-200
(B732)
More flights by this aircraft type
Origin: KSMF Sacramento Intl
United States
Destination: KSLC Salt Lake City Intl
United States
More flights between these airports :: More routes between these airports
Route: +DUDES9 FMG J32 BAM BVL BVL2
File this flight plan on PilotEdge
Remarks:
Altitude:
(Current/Filed)
31,000ft
Speed:
(Current/Filed)
435kts
Departed: 28-Apr-18 07:32 AM
Arrived: 28-Apr-18 08:50 AM
Distance/Time
Traveled:
461nm/1:18
Distance/Time
To Go:
Arrived

Flight Plot

Page will automatically refresh every two minutes.

Flight plan parsing failed; only flown route is shown


Map Options




Map Legend


Flown Route
Filed Route
Departure Airport
Arrival Airport
Navaid (VOR, NDB)
Fix

Horizontal Profiles

Position Reports

Time Latitude Longitude Heading Altitude Ground
Speed
28-Apr-18 07:12 38.681026 -121.596810 0 32ft 0kts
28-Apr-18 07:13 38.681026 -121.596810 0 32ft 0kts
28-Apr-18 07:14 38.681026 -121.596810 0 32ft 0kts
28-Apr-18 07:15 38.681026 -121.596810 0 32ft 0kts
28-Apr-18 07:16 38.681026 -121.596810 0 32ft 0kts
28-Apr-18 07:17 38.681026 -121.596810 0 32ft 0kts
28-Apr-18 07:18 38.681026 -121.596810 0 32ft 0kts
28-Apr-18 07:19 38.681026 -121.596810 0 32ft 0kts
28-Apr-18 07:20 38.681026 -121.596810 0 32ft 0kts
28-Apr-18 07:21 38.681026 -121.596810 0 32ft 0kts
28-Apr-18 07:22 38.681026 -121.596810 0 32ft 0kts
28-Apr-18 07:23 38.681145 -121.596816 355 32ft 3kts
28-Apr-18 07:24 38.681681 -121.598520 274 32ft 9kts
28-Apr-18 07:25 38.686492 -121.598809 0 32ft 25kts
28-Apr-18 07:26 38.693438 -121.598684 0 32ft 25kts
28-Apr-18 07:27 38.700355 -121.598570 0 32ft 25kts
28-Apr-18 07:28 38.707023 -121.598571 323 32ft 11kts
28-Apr-18 07:29 38.707197 -121.599830 269 32ft 0kts
28-Apr-18 07:30 38.706559 -121.601098 179 32ft 0kts
28-Apr-18 07:31 38.683414 -121.601857 182 512ft 176kts
28-Apr-18 07:32 38.640457 -121.563151 133 2935ft 239kts
28-Apr-18 07:33 38.593679 -121.497050 133 6158ft 268kts
28-Apr-18 07:34 38.544762 -121.425178 133 9131ft 289kts
28-Apr-18 07:35 38.492764 -121.345298 119 11245ft 332kts
28-Apr-18 07:36 38.504294 -121.231523 68 13410ft 356kts
28-Apr-18 07:37 38.533346 -121.111096 75 15550ft 373kts
28-Apr-18 07:38 38.559588 -120.982888 76 17578ft 384kts
28-Apr-18 07:39 38.587603 -120.850907 76 19359ft 397kts
28-Apr-18 07:40 38.615730 -120.717890 76 20875ft 408kts
28-Apr-18 07:41 38.643365 -120.581041 76 22233ft 419kts
28-Apr-18 07:42 38.671857 -120.438850 76 23455ft 429kts
28-Apr-18 07:43 38.700394 -120.295469 77 24501ft 438kts
28-Apr-18 07:44 38.770262 -120.179962 29 25407ft 441kts
28-Apr-18 07:45 38.874567 -120.105025 24 26279ft 447kts
28-Apr-18 07:46 38.982062 -120.032296 24 27011ft 454kts
28-Apr-18 07:47 39.092739 -119.957454 25 27738ft 461kts
28-Apr-18 07:48 39.198524 -119.885698 25 28360ft 465kts
28-Apr-18 07:49 39.309831 -119.809943 25 29185ft 464kts
28-Apr-18 07:50 39.420720 -119.734211 25 29731ft 469kts
28-Apr-18 07:51 39.529193 -119.649624 45 30489ft 470kts
28-Apr-18 07:52 39.608829 -119.518035 53 31060ft 473kts
28-Apr-18 07:53 39.686691 -119.378672 53 31064ft 488kts
28-Apr-18 07:54 39.763629 -119.239763 54 31053ft 496kts
28-Apr-18 07:55 39.843574 -119.094717 54 31051ft 497kts
28-Apr-18 07:56 39.923444 -118.949292 55 31046ft 499kts
28-Apr-18 07:57 40.003352 -118.803067 58 31052ft 502kts
28-Apr-18 07:58 40.084043 -118.654241 58 31058ft 507kts
28-Apr-18 07:59 40.145233 -118.500305 74 31045ft 501kts
28-Apr-18 08:00 40.191526 -118.334675 76 31042ft 503kts
28-Apr-18 08:01 40.237782 -118.165505 76 31041ft 499kts
28-Apr-18 08:02 40.283600 -117.996684 76 31040ft 496kts
28-Apr-18 08:03 40.329233 -117.827329 76 31045ft 497kts
28-Apr-18 08:04 40.374609 -117.657932 76 31046ft 497kts
28-Apr-18 08:05 40.419808 -117.487835 76 31047ft 498kts
28-Apr-18 08:06 40.462743 -117.325178 76 31036ft 499kts
28-Apr-18 08:07 40.507196 -117.155578 76 31037ft 499kts
28-Apr-18 08:08 40.551561 -116.984909 75 31038ft 496kts
28-Apr-18 08:09 40.574410 -116.811265 89 31038ft 484kts
28-Apr-18 08:10 40.585647 -116.637381 89 31039ft 481kts
28-Apr-18 08:11 40.596202 -116.463166 89 31041ft 482kts
28-Apr-18 08:12 40.606239 -116.293070 90 31026ft 484kts
28-Apr-18 08:13 40.614611 -116.147728 90 31010ft 485kts
28-Apr-18 08:14 40.624230 -115.976660 90 31011ft 486kts
28-Apr-18 08:15 40.633822 -115.801345 90 31011ft 487kts
28-Apr-18 08:16 40.643211 -115.624808 90 31013ft 488kts
28-Apr-18 08:17 40.652322 -115.448437 90 31014ft 489kts
28-Apr-18 08:18 40.660928 -115.276932 90 31007ft 486kts
28-Apr-18 08:19 40.669425 -115.102328 91 31013ft 482kts
28-Apr-18 08:20 40.677585 -114.928814 91 31006ft 477kts
28-Apr-18 08:21 40.685454 -114.756373 91 30922ft 475kts
28-Apr-18 08:22 40.693006 -114.585206 91 30892ft 471kts
28-Apr-18 08:23 40.700285 -114.414424 91 30893ft 468kts
28-Apr-18 08:24 40.706612 -114.261238 91 30836ft 459kts
28-Apr-18 08:25 40.713136 -114.097227 91 29195ft 449kts
28-Apr-18 08:26 40.719258 -113.937909 91 27713ft 436kts
28-Apr-18 08:27 40.725037 -113.781775 91 26067ft 424kts
28-Apr-18 08:28 40.725809 -113.631037 94 24406ft 408kts
28-Apr-18 08:29 40.725555 -113.484371 93 22543ft 397kts
28-Apr-18 08:30 40.725152 -113.347256 94 20878ft 386kts
28-Apr-18 08:31 40.724724 -113.238484 94 19401ft 376kts
28-Apr-18 08:32 40.724050 -113.104422 93 17216ft 364kts
28-Apr-18 08:33 40.723372 -112.982655 94 16993ft 313kts
28-Apr-18 08:34 40.722375 -112.856212 93 16975ft 378kts
28-Apr-18 08:35 40.721871 -112.721920 93 15367ft 359kts
28-Apr-18 08:36 40.718733 -112.593608 95 13130ft 352kts
28-Apr-18 08:37 40.719012 -112.470521 89 11984ft 315kts
28-Apr-18 08:38 40.724776 -112.361894 89 12001ft 296kts
28-Apr-18 08:39 40.730340 -112.258982 89 11765ft 302kts
28-Apr-18 08:40 40.762300 -112.175347 22 11011ft 307kts
28-Apr-18 08:41 40.840510 -112.149754 13 11001ft 290kts
28-Apr-18 08:42 40.919319 -112.125514 13 10020ft 300kts
28-Apr-18 08:43 40.985842 -112.074323 78 9037ft 285kts
28-Apr-18 08:44 40.990838 -111.977876 105 8298ft 268kts
28-Apr-18 08:45 40.938447 -111.950983 202 7237ft 245kts
28-Apr-18 08:46 40.879483 -111.962094 178 6023ft 200kts
28-Apr-18 08:47 40.833801 -111.962250 177 4947ft 139kts
28-Apr-18 08:48 40.798131 -111.962089 177 4251ft 128kts
28-Apr-18 08:49 40.782426 -111.961709 106 4236ft 9kts
28-Apr-18 08:50 40.782180 -111.959985 171 4236ft 8kts
28-Apr-18 08:51 40.779017 -111.959964 156 4236ft 12kts
28-Apr-18 08:52 40.778792 -111.958466 89 4236ft 0kts

Navigation Log

Ident Type
Flight plan parsing failed, navigation log unavailable